MST,Max TemperatureF,Mean TemperatureF,Min TemperatureF,Max Dew PointF,MeanDew PointF,Min DewpointF,Max Humidity, Mean Humidity, Min Humidity, Max Sea Level PressureIn, Mean Sea Level PressureIn, Min Sea Level PressureIn, Max VisibilityMiles, Mean VisibilityMiles, Min VisibilityMiles, Max Wind SpeedMPH, Mean Wind SpeedMPH, Max Gust SpeedMPH,PrecipitationIn, CloudCover, Events, WindDirDegrees
2014-2-1,16,8,0,13,4,0,92,75,58,30.29,30.17,29.95,10,8,0,28,10,36,0.18,4,Fog-Snow,277
2014-2-2,23,17,11,9,5,0,73,65,56,30.21,30.14,30.09,10,10,10,29,12,34,0.00,4,,214
2014-2-3,12,7,1,9,4,-4,92,83,73,30.46,30.16,29.97,10,3,0,22,13,27,0.06,8,Fog-Snow,38
2014-2-4,1,-4,-10,-4,-7,-15,92,82,71,30.81,30.51,30.23,10,5,1,14,8,18,0.07,7,Fog-Snow,23
2014-2-5,-3,-11,-19,-12,-18,-24,83,70,57,30.91,30.80,30.53,10,9,6,13,4,16,T,3,Fog-Snow,306
2014-2-6,-3,-13,-23,-14,-20,-28,78,67,56,30.75,30.49,30.17,10,10,6,32,16,38,0.00,0,Snow,225
2014-2-7,17,3,-12,7,-5,-17,76,65,53,30.14,29.96,29.67,10,9,2,32,15,38,0.01,5,Snow,221
2014-2-8,11,7,2,3,1,-4,91,80,69,30.44,30.16,29.80,10,5,1,16,8,19,0.13,8,Fog-Snow,81
2014-2-9,8,4,-1,0,-3,-5,83,76,69,30.40,30.28,30.10,10,5,0,14,6,17,0.21,7,Fog-Snow,54
2014-2-10,24,15,5,14,8,-1,84,73,62,30.25,30.15,30.02,10,7,0,33,21,41,0.05,7,Snow,227
2014-2-11,37,30,22,29,22,15,75,66,56,30.11,29.95,29.81,10,9,1,35,18,41,0.01,6,Snow,276
2014-2-12,48,33,17,28,22,13,77,60,42,30.06,29.72,29.48,10,10,10,47,24,57,0.00,4,,252
2014-2-13,47,41,35,33,24,19,65,55,45,29.90,29.73,29.64,10,10,10,35,18,47,0.00,4,,271
2014-2-14,41,37,32,31,20,15,70,55,40,30.01,29.86,29.69,10,10,9,24,13,31,T,6,Rain,248
2014-2-15,48,41,33,29,22,15,70,49,28,30.02,29.89,29.68,10,10,10,26,12,37,0.00,6,,239
2014-2-16,53,43,33,33,25,13,76,58,39,29.90,29.65,29.43,10,10,10,44,16,53,T,5,Rain-Snow,268
2014-2-17,51,42,32,23,18,11,50,40,29,29.94,29.73,29.60,10,10,10,36,16,43,0.00,3,,234
2014-2-18,46,40,34,28,19,14,64,47,30,29.93,29.81,29.60,10,10,10,33,16,43,T,4,,267
2014-2-19,42,36,29,28,16,5,75,49,23,29.86,29.64,29.45,10,10,10,43,23,54,T,5,,276
2014-2-20,37,32,26,24,14,8,72,51,29,30.05,29.90,29.79,10,10,10,29,17,36,0.00,5,,263
2014-2-21,39,32,24,19,15,9,63,49,35,30.01,29.89,29.82,10,9,2,32,16,39,T,7,Snow,309
2014-2-22,24,19,13,21,14,8,96,79,62,30.28,30.10,29.91,10,6,1,16,7,21,0.08,7,Snow,44
2014-2-23,15,13,10,11,9,7,92,86,80,30.35,30.19,30.01,8,2,0,18,13,20,0.38,8,Fog-Snow,47
2014-2-24,10,7,3,7,2,-3,88,79,69,30.56,30.33,30.01,10,3,1,17,7,21,0.22,8,Snow,40
2014-2-25,13,6,-2,3,1,-3,95,77,58,30.66,30.44,30.18,10,6,1,18,6,25,0.14,4,Fog-Snow,11
2014-2-26,22,14,5,8,4,-2,73,63,53,30.38,30.20,29.99,10,10,6,35,24,43,0.00,0,Snow,230
2014-2-27,37,23,8,32,16,1,92,70,47,29.98,29.72,29.55,10,8,0,25,15,31,0.24,6,Fog-Rain-Snow,220
2014-2-28,27,12,-3,25,6,-7,96,88,79,30.40,30.02,29.65,7,2,0,26,15,33,0.28,8,Fog-Snow,48